Time;durP1;ratioP1;P1;durP2;ratioP2;P2;SDS_P1;SDS_P2;PMS_P1;PMS_P2;Temp;Humidity;BMP_temperature;BMP_pressure;BME280_temperature;BME280_humidity;BME280_pressure;Samples;Min_cycle;Max_cycle;Signal;HPM_P1;HPM_P2
2022/06/25 00:02:11;;;;;;;3.45;2.50;;;;;;;18.21;78.83;100717.69;5070909;28;20372;-59
2022/06/25 00:07:21;;;;;;;5.47;2.55;;;;;;;18.17;78.67;100717.09;5070423;28;20043;-59
2022/06/25 00:09:46;;;;;;;3.15;2.40;;;;;;;18.14;79.03;100723.63;5052569;28;20104;-59
2022/06/25 00:14:56;;;;;;;3.42;2.20;;;;;;;18.15;78.63;100736.09;5068381;28;20075;-59
2022/06/25 00:17:21;;;;;;;6.65;2.53;;;;;;;18.14;78.89;100731.69;5053875;28;20545;-59
2022/06/25 00:19:47;;;;;;;4.93;2.30;;;;;;;18.10;78.91;100734.84;5067908;28;20033;-59
2022/06/25 00:22:13;;;;;;;3.58;2.30;;;;;;;18.04;79.31;100730.91;5071290;28;20487;-59
2022/06/25 00:24:38;;;;;;;5.47;2.33;;;;;;;18.01;79.39;100731.22;5071630;28;20071;-59
2022/06/25 00:27:04;;;;;;;10.57;2.53;;;;;;;18.01;79.44;100727.69;5069367;28;20119;-59
2022/06/25 00:29:30;;;;;;;4.20;2.15;;;;;;;17.99;79.50;100730.50;5070650;28;20038;-59
2022/06/25 00:31:55;;;;;;;5.45;2.80;;;;;;;17.96;79.53;100740.72;5070067;28;20067;-59
2022/06/25 00:34:21;;;;;;;3.33;2.60;;;;;;;17.93;79.24;100736.47;5056734;28;20500;-59
2022/06/25 00:36:49;;;;;;;3.67;2.47;;;;;;;17.91;79.46;100736.63;5068608;28;20123;-59
2022/06/25 00:39:15;;;;;;;6.07;2.53;;;;;;;17.89;79.65;100735.09;5070767;28;20024;-59
2022/06/25 00:41:42;;;;;;;4.47;2.70;;;;;;;17.85;79.66;100734.53;5033516;28;20345;-59
2022/06/25 00:44:09;;;;;;;4.53;2.22;;;;;;;17.74;79.88;100725.75;5070545;28;20480;-59
2022/06/25 00:46:35;;;;;;;5.35;2.80;;;;;;;17.78;80.07;100728.03;5075659;28;20028;-58
2022/06/25 00:49:01;;;;;;;2.53;2.33;;;;;;;17.81;80.40;100740.34;5069389;28;20032;-59
2022/06/25 00:51:28;;;;;;;9.75;2.83;;;;;;;17.87;80.08;100745.97;5069807;28;20043;-59
2022/06/25 00:53:58;;;;;;;4.85;2.40;;;;;;;17.75;80.23;100743.59;5069110;28;20032;-59
2022/06/25 00:56:27;;;;;;;5.57;2.90;;;;;;;17.77;80.43;100747.00;5070162;28;20028;-58
2022/06/25 00:58:56;;;;;;;5.22;3.05;;;;;;;17.78;80.22;100746.88;5069931;28;20021;-59
2022/06/25 01:01:23;;;;;;;4.15;2.67;;;;;;;17.71;80.27;100749.25;5070654;28;20024;-58
2022/06/25 01:03:48;;;;;;;8.32;2.90;;;;;;;17.75;80.08;100757.03;5070394;28;20132;-59
2022/06/25 01:06:14;;;;;;;4.40;2.85;;;;;;;17.77;79.93;100758.59;5068566;28;20813;-59
2022/06/25 01:08:42;;;;;;;4.95;2.92;;;;;;;17.61;80.57;100755.66;5070297;28;20028;-59
2022/06/25 01:11:10;;;;;;;6.95;3.15;;;;;;;17.59;80.88;100744.16;5070851;28;20143;-59
2022/06/25 01:13:36;;;;;;;8.10;2.83;;;;;;;17.53;80.86;100745.63;5069842;28;20029;-59
2022/06/25 01:16:02;;;;;;;5.90;3.05;;;;;;;17.55;80.60;100756.22;5067889;28;20540;-59
2022/06/25 01:18:27;;;;;;;6.28;3.15;;;;;;;17.50;81.24;100759.38;5069206;28;20067;-59
2022/06/25 01:20:55;;;;;;;5.28;3.17;;;;;;;17.54;81.27;100758.06;5069402;28;20082;-59
2022/06/25 01:23:21;;;;;;;6.05;3.20;;;;;;;17.57;80.81;100759.63;5069927;28;20056;-59
2022/06/25 01:25:49;;;;;;;5.10;2.95;;;;;;;17.55;81.18;100772.38;5069871;28;20073;-59
2022/06/25 01:28:15;;;;;;;5.75;3.30;;;;;;;17.55;80.57;100764.28;5069989;28;20031;-59
2022/06/25 01:30:40;;;;;;;3.30;3.00;;;;;;;17.49;80.36;100769.25;5074612;28;20411;-59
2022/06/25 01:33:07;;;;;;;4.40;3.30;;;;;;;17.53;80.30;100775.22;5075094;28;20119;-59
2022/06/25 01:35:33;;;;;;;7.25;3.40;;;;;;;17.49;80.36;100779.16;5091167;28;20440;-59
2022/06/25 01:37:58;;;;;;;3.88;3.42;;;;;;;17.54;80.27;100784.13;5090472;28;20050;-59
2022/06/25 01:40:24;;;;;;;4.50;3.38;;;;;;;17.50;80.22;100778.19;5073328;28;20032;-59
2022/06/25 01:42:58;;;;;;;6.32;3.55;;;;;;;17.47;80.25;100791.88;5055567;28;20020;-59
2022/06/25 01:45:24;;;;;;;6.63;3.30;;;;;;;17.51;80.04;100789.78;5091090;28;20024;-59
2022/06/25 01:47:50;;;;;;;6.50;3.38;;;;;;;17.39;80.16;100795.31;5071077;28;20107;-59
2022/06/25 01:50:16;;;;;;;5.00;3.35;;;;;;;17.40;80.25;100794.31;5090127;28;20502;-59
2022/06/25 01:52:46;;;;;;;5.68;3.42;;;;;;;17.36;80.45;100802.81;5087520;28;20032;-59
2022/06/25 01:55:12;;;;;;;4.68;3.47;;;;;;;17.32;80.37;100799.53;5089897;28;20028;-59
2022/06/25 01:57:38;;;;;;;6.90;3.65;;;;;;;17.25;80.51;100793.88;5089435;28;20024;-59
2022/06/25 02:00:07;;;;;;;8.88;3.88;;;;;;;17.22;80.66;100802.25;5089289;28;20455;-59
2022/06/25 02:02:32;;;;;;;6.15;3.70;;;;;;;17.24;80.51;100810.19;5071645;28;20012;-59
2022/06/25 02:04:58;;;;;;;8.13;3.97;;;;;;;17.23;80.93;100813.84;5071656;28;20443;-59
2022/06/25 02:07:23;;;;;;;5.93;3.75;;;;;;;17.25;80.47;100811.88;5087220;28;20136;-59
2022/06/25 02:09:53;;;;;;;5.35;3.58;;;;;;;17.25;80.84;100817.25;5082122;28;20036;-59
2022/06/25 02:12:21;;;;;;;7.80;3.95;;;;;;;17.27;80.64;100822.50;5072063;28;20075;-58
2022/06/25 02:14:50;;;;;;;4.10;3.60;;;;;;;17.23;80.82;100817.38;5089463;28;20118;-59
2022/06/25 02:17:16;;;;;;;;;;;;;;;17.38;79.54;100820.50;5089108;28;20020;-59
2022/06/25 02:19:42;;;;;;;6.60;3.92;;;;;;;17.23;80.75;100821.91;5089338;28;19973;-59
2022/06/25 02:22:08;;;;;;;5.40;3.72;;;;;;;17.20;80.40;100820.34;5075441;28;20028;-59
2022/06/25 02:24:33;;;;;;;6.43;3.40;;;;;;;17.12;80.21;100830.97;5093165;28;20388;-59
2022/06/25 02:26:59;;;;;;;7.13;3.70;;;;;;;17.14;80.30;100830.81;5075210;28;20032;-59
2022/06/25 02:29:24;;;;;;;4.72;3.80;;;;;;;17.18;80.78;100833.09;5073442;28;20109;-59
2022/06/25 02:31:50;;;;;;;5.35;3.75;;;;;;;17.09;80.54;100830.38;5092359;28;22212;-59
2022/06/25 02:34:16;;;;;;;6.68;4.30;;;;;;;17.07;80.52;100838.59;5073871;28;20028;-59
2022/06/25 02:36:41;;;;;;;7.32;4.38;;;;;;;17.06;80.33;100844.09;5093000;28;20032;-59
2022/06/25 02:39:09;;;;;;;6.32;3.97;;;;;;;17.02;80.72;100844.34;5092713;28;20031;-58
2022/06/25 02:41:35;;;;;;;7.30;4.18;;;;;;;16.98;81.44;100842.94;5092610;28;20020;-59
2022/06/25 02:44:03;;;;;;;5.57;4.35;;;;;;;16.98;80.71;100844.78;5092795;28;20031;-59
2022/06/25 02:46:28;;;;;;;5.72;4.10;;;;;;;16.94;80.97;100846.03;5093039;28;20024;-58
2022/06/25 02:48:54;;;;;;;8.15;4.50;;;;;;;16.91;81.08;100857.94;5092493;28;20030;-59
2022/06/25 02:51:20;;;;;;;6.22;4.50;;;;;;;16.88;81.12;100858.19;5092082;28;20122;-59
2022/06/25 02:53:46;;;;;;;5.75;3.97;;;;;;;16.87;81.24;100859.19;5092534;28;20032;-59
2022/06/25 02:58:55;;;;;;;6.50;4.70;;;;;;;16.90;81.01;100872.34;5077150;28;20105;-58
2022/06/25 03:01:29;;;;;;;8.20;4.93;;;;;;;16.92;81.06;100865.00;5074350;28;20442;-58
2022/06/25 03:03:56;;;;;;;9.43;4.60;;;;;;;16.92;80.99;100858.78;5101577;28;20031;-59
2022/06/25 03:06:22;;;;;;;7.38;5.15;;;;;;;16.88;81.30;100868.94;5092449;28;20035;-58
2022/06/25 03:08:50;;;;;;;7.40;4.15;;;;;;;16.92;80.66;100862.31;5092400;28;20040;-58
2022/06/25 03:11:16;;;;;;;7.88;4.93;;;;;;;16.89;80.61;100854.53;5092878;28;20020;-59
2022/06/25 03:13:42;;;;;;;6.50;4.90;;;;;;;16.88;80.83;100858.19;5093956;28;20089;-59
2022/06/25 03:16:08;;;;;;;9.23;4.72;;;;;;;16.88;80.74;100860.88;5075040;28;20036;-58
2022/06/25 03:18:34;;;;;;;5.28;4.28;;;;;;;16.82;80.77;100852.50;5092436;28;20031;-59
2022/06/25 03:21:00;;;;;;;6.75;4.90;;;;;;;16.87;80.99;100856.50;5091013;28;20078;-59
2022/06/25 03:23:26;;;;;;;5.78;4.50;;;;;;;16.83;81.08;100863.13;5074631;28;20028;-59
2022/06/25 03:25:52;;;;;;;9.63;5.20;;;;;;;16.81;80.96;100862.41;5091091;28;20028;-59
2022/06/25 03:28:19;;;;;;;7.90;4.43;;;;;;;16.86;80.88;100860.19;5075760;28;20074;-59
2022/06/25 03:30:45;;;;;;;5.57;4.93;;;;;;;16.79;81.53;100856.31;5091649;28;20399;-58
2022/06/25 03:33:12;;;;;;;7.47;4.85;;;;;;;16.84;81.19;100869.34;5092141;28;20036;-59
2022/06/25 03:35:37;;;;;;;9.48;4.45;;;;;;;16.79;81.45;100862.56;5092152;28;20028;-58
2022/06/25 03:38:03;;;;;;;5.38;4.50;;;;;;;16.80;81.79;100866.94;5075015;28;20411;-58
2022/06/25 03:40:31;;;;;;;5.05;4.50;;;;;;;16.80;81.37;100868.78;5091705;28;20024;-59
2022/06/25 03:42:58;;;;;;;12.63;4.65;;;;;;;16.84;81.72;100875.56;5092168;28;20138;-59
2022/06/25 03:45:24;;;;;;;6.90;4.50;;;;;;;16.89;81.74;100869.81;5091714;28;20115;-59
2022/06/25 03:47:54;;;;;;;5.80;4.07;;;;;;;16.91;81.60;100876.75;5073410;28;20063;-59
2022/06/25 03:50:21;;;;;;;4.40;4.00;;;;;;;16.92;81.32;100875.75;5057500;28;20041;-59
2022/06/25 03:52:48;;;;;;;6.05;4.20;;;;;;;16.97;81.34;100873.50;5072087;28;20031;-58
2022/06/25 03:55:14;;;;;;;7.90;4.20;;;;;;;16.93;81.41;100869.38;5091327;28;20485;-58
2022/06/25 03:57:39;;;;;;;6.28;4.38;;;;;;;16.99;81.13;100878.72;5074098;28;20024;-59
2022/06/25 04:00:07;;;;;;;4.78;4.28;;;;;;;17.02;81.11;100878.44;5072695;28;20035;-58
2022/06/25 04:02:32;;;;;;;5.20;4.53;;;;;;;17.04;81.10;100873.81;5090512;28;20020;-59
2022/06/25 04:04:59;;;;;;;5.18;4.28;;;;;;;17.07;81.32;100873.53;5091491;28;20115;-58
2022/06/25 04:07:25;;;;;;;5.05;3.90;;;;;;;17.10;80.92;100877.78;5091070;28;20509;-59
2022/06/25 04:09:50;;;;;;;5.18;3.65;;;;;;;17.07;81.23;100883.44;5090063;28;20024;-59
2022/06/25 04:12:16;;;;;;;5.70;3.55;;;;;;;17.03;81.65;100886.38;5091209;28;20038;-58
2022/06/25 04:14:41;;;;;;;5.85;4.50;;;;;;;17.04;81.79;100881.84;5091174;28;20449;-58
2022/06/25 04:17:07;;;;;;;6.63;4.10;;;;;;;17.09;81.38;100885.00;5072864;28;20047;-59
2022/06/25 04:19:40;;;;;;;9.45;3.97;;;;;;;17.08;81.39;100880.59;5090735;28;20052;-59
2022/06/25 04:22:09;;;;;;;5.85;4.28;;;;;;;17.12;81.20;100890.09;5090760;28;20036;-58
2022/06/25 04:24:36;;;;;;;6.55;4.15;;;;;;;17.12;81.41;100882.03;5090542;28;20030;-58
2022/06/25 04:27:02;;;;;;;4.93;4.10;;;;;;;17.15;81.47;100876.38;5092099;28;20054;-58
2022/06/25 04:29:28;;;;;;;5.78;4.10;;;;;;;17.21;81.67;100893.78;5089290;28;20479;-59
2022/06/25 04:31:53;;;;;;;4.88;3.67;;;;;;;17.24;81.06;100898.88;5070921;28;20051;-58
2022/06/25 04:34:19;;;;;;;5.85;3.90;;;;;;;17.22;81.40;100898.16;5090853;28;20028;-59
2022/06/25 04:36:44;;;;;;;4.97;4.53;;;;;;;17.26;81.33;100896.88;5110785;28;20713;-59
2022/06/25 04:39:12;;;;;;;4.20;3.70;;;;;;;17.27;81.66;100898.59;5069444;28;20060;-59
2022/06/25 04:41:38;;;;;;;7.95;4.00;;;;;;;17.31;81.78;100907.22;5072955;28;20476;-59
2022/06/25 04:44:04;;;;;;;5.10;3.63;;;;;;;17.31;81.70;100907.22;5072043;28;20089;-59
2022/06/25 04:46:29;;;;;;;5.80;4.10;;;;;;;17.37;81.30;100904.00;5073169;28;20032;-59
2022/06/25 04:48:56;;;;;;;7.05;3.53;;;;;;;17.39;81.37;100910.94;5087048;28;20041;-59
2022/06/25 04:51:22;;;;;;;5.72;3.80;;;;;;;17.49;81.04;100911.78;5090362;28;20024;-59
2022/06/25 04:53:56;;;;;;;5.88;4.13;;;;;;;17.57;80.52;100907.56;5090868;28;20392;-59
2022/06/25 04:56:26;;;;;;;6.25;3.83;;;;;;;17.60;80.33;100915.34;5074299;28;20394;-58
2022/06/25 04:58:55;;;;;;;6.50;3.70;;;;;;;17.63;80.10;100912.38;5090503;28;20065;-59
2022/06/25 05:01:22;;;;;;;3.42;3.13;;;;;;;17.63;81.00;100909.69;5090278;28;20036;-58
2022/06/25 05:03:48;;;;;;;4.25;3.00;;;;;;;17.57;80.03;100916.47;5073237;28;20020;-59
2022/06/25 05:06:14;;;;;;;6.25;3.92;;;;;;;17.60;80.58;100923.41;5090965;28;20046;-58
2022/06/25 05:08:43;;;;;;;6.55;3.85;;;;;;;17.58;80.55;100928.06;5073080;28;20036;-59
2022/06/25 05:11:08;;;;;;;7.38;4.07;;;;;;;17.56;80.56;100921.97;5091065;28;20380;-59
2022/06/25 05:13:35;;;;;;;6.68;3.60;;;;;;;17.55;81.09;100929.19;5091124;28;20043;-58
2022/06/25 05:16:00;;;;;;;6.50;3.75;;;;;;;17.55;80.94;100931.88;5090885;28;20035;-59
2022/06/25 05:18:26;;;;;;;4.90;3.70;;;;;;;17.51;81.00;100933.16;5091547;28;20020;-59
2022/06/25 05:20:55;;;;;;;5.28;3.78;;;;;;;17.50;81.42;100934.16;5090582;28;20032;-59
2022/06/25 05:23:21;;;;;;;;;;;;;;;17.63;80.35;100931.19;5091414;28;20031;-59
2022/06/25 05:25:52;;;;;;;4.50;3.75;;;;;;;17.62;80.28;100930.34;5091131;28;20440;-59
2022/06/25 05:28:18;;;;;;;9.75;4.30;;;;;;;17.74;80.53;100932.91;5091259;28;20089;-59
2022/06/25 05:30:43;;;;;;;5.03;3.80;;;;;;;17.85;80.16;100939.03;5071819;28;20040;-59
2022/06/25 05:33:09;;;;;;;8.48;4.00;;;;;;;17.93;79.23;100944.53;5072919;28;20482;-59
2022/06/25 05:35:35;;;;;;;4.22;3.50;;;;;;;18.04;79.63;100948.94;5073234;28;20063;-59
2022/06/25 05:38:00;;;;;;;8.20;3.50;;;;;;;18.16;79.00;100952.31;5090337;28;20067;-59
2022/06/25 05:40:26;;;;;;;5.93;3.40;;;;;;;18.13;78.17;100949.91;5091086;28;20081;-59
2022/06/25 05:42:51;;;;;;;7.05;3.80;;;;;;;18.07;78.03;100953.19;5055761;28;20027;-59
2022/06/25 05:45:17;;;;;;;6.25;3.45;;;;;;;18.05;78.41;100956.00;5072468;28;20047;-59
2022/06/25 05:47:42;;;;;;;7.18;3.80;;;;;;;18.02;78.61;100950.91;5072777;28;20028;-59
2022/06/25 05:50:08;;;;;;;5.30;3.55;;;;;;;18.03;78.39;100962.50;5090680;28;20032;-58
2022/06/25 05:52:36;;;;;;;6.03;3.67;;;;;;;18.06;79.37;100956.84;5036808;28;20123;-59
2022/06/25 05:55:03;;;;;;;5.18;3.78;;;;;;;17.98;78.82;100951.34;5092870;28;20027;-59
2022/06/25 05:57:28;;;;;;;6.05;3.97;;;;;;;18.11;78.69;100960.81;5094838;28;20497;-59
2022/06/25 05:59:54;;;;;;;9.00;4.13;;;;;;;18.07;78.60;100969.34;5059589;28;20027;-59
2022/06/25 06:02:19;;;;;;;11.93;4.15;;;;;;;18.14;77.90;100973.13;5093965;28;20126;-59
2022/06/25 06:04:45;;;;;;;8.60;4.22;;;;;;;18.21;78.47;100968.06;5057455;28;20029;-59
2022/06/25 06:07:11;;;;;;;7.60;3.80;;;;;;;18.32;77.69;100975.94;5094114;28;20032;-58
2022/06/25 06:09:39;;;;;;;10.77;3.83;;;;;;;18.30;77.66;100975.28;5076626;28;20048;-59
2022/06/25 06:12:05;;;;;;;7.10;3.50;;;;;;;18.38;76.89;100983.44;5059584;28;20122;-59
2022/06/25 06:14:30;;;;;;;5.70;3.50;;;;;;;18.35;76.95;100975.66;5075639;28;20111;-59
2022/06/25 06:16:56;;;;;;;4.80;3.70;;;;;;;18.37;77.23;100974.53;5059039;28;20047;-59
2022/06/25 06:19:22;;;;;;;6.72;4.13;;;;;;;18.43;76.90;100983.03;5094664;28;20024;-59
2022/06/25 06:21:48;;;;;;;6.97;3.80;;;;;;;18.42;76.61;100987.56;5075923;28;20039;-59
2022/06/25 06:24:13;;;;;;;5.55;3.60;;;;;;;18.40;77.66;100981.47;5094018;28;20020;-59
2022/06/25 06:26:38;;;;;;;8.68;3.90;;;;;;;18.44;77.49;101003.56;5076147;28;20115;-59
2022/06/25 06:29:04;;;;;;;4.65;3.30;;;;;;;18.45;76.46;100997.22;5093578;28;20066;-59
2022/06/25 06:31:30;;;;;;;7.78;3.50;;;;;;;18.46;76.83;100997.06;5075581;28;20063;-59
2022/06/25 06:33:55;;;;;;;5.22;3.72;;;;;;;18.50;76.97;101003.00;5075890;28;20081;-59
2022/06/25 06:36:20;;;;;;;9.23;3.92;;;;;;;18.49;77.23;101004.84;5075032;28;20035;-59
2022/06/25 06:38:46;;;;;;;6.88;3.30;;;;;;;18.50;76.92;101006.56;5093823;28;20403;-59
2022/06/25 06:41:15;;;;;;;9.40;3.80;;;;;;;18.53;76.86;101011.66;5093570;28;20468;-59
2022/06/25 06:43:40;;;;;;;7.10;3.80;;;;;;;18.52;76.66;101009.09;5059234;28;20028;-59
2022/06/25 06:46:06;;;;;;;7.13;3.67;;;;;;;18.57;76.65;100999.59;5075505;28;20028;-59
2022/06/25 06:48:32;;;;;;;5.85;3.47;;;;;;;18.61;76.83;101009.06;5094173;28;20027;-59
2022/06/25 06:50:58;;;;;;;6.72;3.58;;;;;;;18.70;75.97;101010.03;5093128;28;20044;-59
2022/06/25 06:53:23;;;;;;;4.65;3.53;;;;;;;18.86;75.71;101009.47;5094085;28;20437;-59
2022/06/25 06:55:48;;;;;;;8.75;3.95;;;;;;;19.01;75.86;101004.47;5093423;28;20028;-59
2022/06/25 06:58:14;;;;;;;5.78;3.38;;;;;;;19.18;74.29;100998.28;5092732;28;20386;-59
2022/06/25 07:00:39;;;;;;;8.68;4.05;;;;;;;19.34;73.85;101013.81;5093407;28;20090;-59
2022/06/25 07:03:05;;;;;;;9.05;3.70;;;;;;;19.46;73.59;101001.81;5093390;28;20085;-59
2022/06/25 07:05:31;;;;;;;4.95;3.28;;;;;;;19.62;72.57;100993.09;5093225;28;20020;-59
2022/06/25 07:08:04;;;;;;;6.38;3.72;;;;;;;19.85;72.54;101003.44;5092941;28;20497;-59
2022/06/25 07:10:30;;;;;;;6.93;3.47;;;;;;;19.94;71.85;101002.53;5075354;28;20032;-59
2022/06/25 07:12:55;;;;;;;6.80;3.22;;;;;;;20.12;71.62;101005.25;5092871;28;20031;-59
2022/06/25 07:15:21;;;;;;;7.22;3.50;;;;;;;20.19;68.91;101009.00;5057282;28;20032;-59
2022/06/25 07:17:46;;;;;;;6.20;3.67;;;;;;;20.30;68.72;100997.97;5075015;28;20039;-59
2022/06/25 07:20:12;;;;;;;4.55;3.15;;;;;;;20.27;69.06;101005.56;5093055;28;20032;-58
2022/06/25 07:22:39;;;;;;;5.20;3.13;;;;;;;20.42;69.56;101010.22;5092840;28;20024;-59
2022/06/25 07:25:06;;;;;;;5.68;3.30;;;;;;;20.55;68.16;101001.72;5093357;28;20048;-59
2022/06/25 07:27:32;;;;;;;7.22;3.28;;;;;;;20.67;68.17;101010.41;5074859;28;20390;-59
2022/06/25 07:29:57;;;;;;;7.30;3.50;;;;;;;20.59;66.52;101013.94;5058094;28;20467;-59
2022/06/25 07:32:23;;;;;;;5.43;2.78;;;;;;;20.53;67.96;101011.88;5092945;28;20048;-59
2022/06/25 07:34:50;;;;;;;7.00;3.17;;;;;;;20.51;68.11;101007.59;5075028;28;20024;-59
2022/06/25 07:37:16;;;;;;;6.80;3.80;;;;;;;20.62;68.17;101015.47;5074796;28;20067;-59
2022/06/25 07:39:42;;;;;;;8.13;2.63;;;;;;;20.79;67.27;101019.13;5093102;28;20078;-59
2022/06/25 07:42:07;;;;;;;4.32;2.70;;;;;;;20.74;67.17;101007.97;5073899;28;20036;-59
2022/06/25 07:44:33;;;;;;;7.45;2.60;;;;;;;20.58;68.12;101012.22;5093105;28;20030;-59
2022/06/25 07:46:59;;;;;;;5.78;2.80;;;;;;;20.48;68.39;101024.13;5092585;28;20046;-60
2022/06/25 07:49:24;;;;;;;5.10;2.30;;;;;;;20.41;68.82;101019.34;5074829;28;20039;-59
2022/06/25 07:51:56;;;;;;;5.28;2.40;;;;;;;20.40;67.99;101022.19;5092321;28;20020;-59
2022/06/25 07:54:25;;;;;;;5.32;2.80;;;;;;;20.43;69.08;101019.16;5074957;28;20054;-59
2022/06/25 07:56:50;;;;;;;4.50;2.55;;;;;;;20.50;67.84;101028.38;5092392;28;20030;-59
2022/06/25 07:59:16;;;;;;;7.28;2.65;;;;;;;20.49;67.83;101023.09;5074810;28;20032;-59
2022/06/25 08:01:41;;;;;;;7.93;2.63;;;;;;;20.49;68.55;101020.41;5092264;28;20035;-59
2022/06/25 08:04:07;;;;;;;4.60;2.42;;;;;;;20.45;67.83;101022.56;5091950;28;20466;-59
2022/06/25 08:06:34;;;;;;;4.57;2.42;;;;;;;20.43;69.10;101021.88;5071269;28;20028;-59
2022/06/25 08:09:01;;;;;;;6.30;2.80;;;;;;;20.24;69.04;101005.88;5092703;28;20069;-59
2022/06/25 08:11:27;;;;;;;7.07;2.90;;;;;;;20.35;69.59;101027.19;5074294;28;20439;-59
2022/06/25 08:13:52;;;;;;;5.18;2.47;;;;;;;20.23;69.99;101012.25;5092402;28;20486;-59
2022/06/25 08:16:18;;;;;;;4.55;2.30;;;;;;;20.17;69.09;101022.66;5091778;28;20023;-59
2022/06/25 08:18:44;;;;;;;7.72;2.70;;;;;;;20.07;69.30;101030.00;5091397;28;20090;-59
2022/06/25 08:21:10;;;;;;;5.10;2.47;;;;;;;19.92;70.21;101029.69;5091571;28;20057;-59
2022/06/25 08:23:35;;;;;;;3.75;2.35;;;;;;;19.86;70.86;101034.88;5039435;28;20029;-59
2022/06/25 08:26:01;;;;;;;4.88;2.40;;;;;;;19.85;70.37;101028.59;5091351;28;20035;-59
2022/06/25 08:28:26;;;;;;;4.53;2.40;;;;;;;19.87;71.38;101020.34;5074116;28;20172;-59
2022/06/25 08:30:54;;;;;;;4.65;2.40;;;;;;;20.00;71.16;101036.16;5073789;28;20044;-59
2022/06/25 08:33:21;;;;;;;8.02;2.60;;;;;;;20.12;71.65;101032.25;5074398;28;20032;-59
2022/06/25 08:35:46;;;;;;;4.20;2.30;;;;;;;20.22;70.80;101032.16;5091439;28;20406;-59
2022/06/25 08:38:12;;;;;;;3.65;2.40;;;;;;;20.51;71.36;101032.75;5091609;28;20032;-59
2022/06/25 08:40:38;;;;;;;7.50;2.20;;;;;;;20.60;68.81;101025.59;5056735;28;20063;-59
2022/06/25 08:43:04;;;;;;;3.58;2.60;;;;;;;20.78;68.29;101026.38;5056866;28;20024;-59
2022/06/25 08:45:33;;;;;;;5.88;2.22;;;;;;;21.00;67.76;101033.13;5091613;28;20024;-59
2022/06/25 08:48:00;;;;;;;3.58;2.13;;;;;;;21.39;66.79;101029.13;5091721;28;20060;-59
2022/06/25 08:50:29;;;;;;;6.38;2.47;;;;;;;21.73;65.71;101032.59;5091918;28;20474;-59
2022/06/25 08:52:55;;;;;;;3.90;2.53;;;;;;;22.03;64.77;101029.44;5073603;28;20032;-59
2022/06/25 08:55:23;;;;;;;7.25;2.50;;;;;;;;;;5091540;28;20043;-59
2022/06/25 08:57:49;;;;;;;7.10;2.60;;;;;;;22.43;61.99;101034.09;5090159;28;20019;-59
2022/06/25 09:00:15;;;;;;;4.80;2.22;;;;;;;22.70;63.37;101032.03;5073243;28;20054;-59
2022/06/25 09:02:40;;;;;;;3.97;1.58;;;;;;;22.69;61.86;101031.19;5055381;28;20380;-59
2022/06/25 09:05:09;;;;;;;5.90;2.10;;;;;;;22.60;62.12;101043.91;5070017;28;20178;-59
2022/06/25 09:07:36;;;;;;;3.22;2.08;;;;;;;22.57;61.48;101036.13;5089622;28;20031;-59
2022/06/25 09:10:02;;;;;;;7.93;2.17;;;;;;;22.45;63.03;101035.63;5090106;28;20031;-59
2022/06/25 09:12:32;;;;;;;3.40;2.00;;;;;;;22.35;62.40;101031.38;5091331;28;20375;-60
2022/06/25 09:15:02;;;;;;;5.63;2.33;;;;;;;22.15;62.63;101038.97;5089953;28;20055;-59
2022/06/25 09:17:28;;;;;;;5.32;2.15;;;;;;;22.00;62.35;101039.63;5070946;28;20036;-59
2022/06/25 09:19:57;;;;;;;4.00;1.77;;;;;;;21.84;64.20;101038.72;5090718;28;20031;-59
2022/06/25 09:22:26;;;;;;;10.60;3.35;;;;;;;21.72;63.70;101036.34;5072741;28;20023;-59
2022/06/25 09:24:54;;;;;;;;;;;;;;;22.08;63.60;101048.75;5056817;28;20024;-59
2022/06/25 09:27:40;;;;;;;4.90;2.23;;;;;;;21.97;64.96;101039.09;5091246;28;19923;-59
2022/06/25 09:30:14;;;;;;;5.20;1.80;;;;;;;22.00;63.13;101034.22;5072419;28;20046;-59
2022/06/25 09:32:49;;;;;;;6.43;2.42;;;;;;;21.93;64.44;101038.56;5064942;28;20056;-59
2022/06/25 09:35:31;;;;;;;9.18;3.40;;;;;;;22.03;64.70;101034.88;5069354;28;20051;-59
2022/06/25 09:38:19;;;;;;;6.93;2.28;;;;;;;21.96;63.46;101040.09;5067221;28;20028;-59
2022/06/25 09:40:59;;;;;;;6.10;2.20;;;;;;;21.91;63.89;101034.34;5060529;28;20033;-59
2022/06/25 09:43:36;;;;;;;2.72;1.70;;;;;;;21.96;64.07;101042.81;5071124;28;20025;-59
2022/06/25 09:46:08;;;;;;;4.45;1.83;;;;;;;21.98;62.44;101040.81;5068488;28;20108;-59
2022/06/25 09:48:35;;;;;;;4.50;1.40;;;;;;;22.11;62.32;101043.00;5070811;28;20467;-59
2022/06/25 09:51:15;;;;;;;5.82;1.73;;;;;;;22.16;62.53;101043.38;5069485;28;20037;-59
2022/06/25 09:53:48;;;;;;;6.43;1.90;;;;;;;22.17;61.61;101051.34;5070093;28;20112;-59
2022/06/25 09:56:24;;;;;;;2.70;1.60;;;;;;;22.17;61.99;101051.34;5066023;28;20024;-59
2022/06/25 09:58:50;;;;;;;4.65;1.80;;;;;;;22.08;60.03;101046.06;5069661;28;20104;-59
2022/06/25 10:01:19;;;;;;;2.13;1.50;;;;;;;22.18;61.53;101054.91;5070555;28;20446;-59
2022/06/25 10:03:46;;;;;;;4.38;1.52;;;;;;;22.20;59.35;101050.16;5070082;28;20032;-59
2022/06/25 10:06:19;;;;;;;4.93;1.95;;;;;;;22.36;60.41;101050.19;5067876;28;20028;-59
2022/06/25 10:08:50;;;;;;;7.10;1.88;;;;;;;22.41;59.78;101045.13;5068236;28;20457;-59
2022/06/25 10:11:18;;;;;;;3.88;1.80;;;;;;;22.66;59.82;101047.81;5066561;28;20025;-59
2022/06/25 10:13:44;;;;;;;3.58;1.63;;;;;;;22.92;59.35;101052.19;5068640;28;20324;-59
2022/06/25 10:16:10;;;;;;;2.88;1.70;;;;;;;23.04;59.16;101038.09;5065820;28;20024;-59
2022/06/25 10:18:41;;;;;;;17.40;2.28;;;;;;;23.48;58.68;101039.50;5050602;28;20028;-61
2022/06/25 10:21:09;;;;;;;4.30;1.45;;;;;;;23.48;56.89;101045.75;5068141;28;20044;-59
2022/06/25 10:23:36;;;;;;;1.92;1.30;;;;;;;23.58;56.57;101034.66;5069673;28;20020;-59
2022/06/25 10:26:01;;;;;;;2.70;1.38;;;;;;;23.54;55.59;101036.91;5068907;28;20033;-60
2022/06/25 10:28:30;;;;;;;4.20;1.40;;;;;;;23.61;55.05;101033.47;5068508;28;20660;-59
2022/06/25 10:30:57;;;;;;;;;;;;;;;23.79;56.80;101026.75;5068360;28;20295;-59
2022/06/25 10:33:28;;;;;;;2.67;1.42;;;;;;;23.85;55.49;101016.22;5067323;28;19920;-59
2022/06/25 10:35:59;;;;;;;4.18;1.50;;;;;;;23.95;55.11;101028.56;5063565;28;20033;-59
2022/06/25 10:38:26;;;;;;;1.80;1.50;;;;;;;24.06;54.56;101029.16;5068255;28;20029;-59
2022/06/25 10:40:52;;;;;;;4.28;1.45;;;;;;;24.35;54.60;101026.53;5068518;28;20112;-59
2022/06/25 10:43:37;;;;;;;2.95;1.30;;;;;;;24.59;52.53;101036.41;5072186;28;20120;-58
2022/06/25 10:46:24;;;;;;;3.85;1.50;;;;;;;24.60;52.38;101031.81;5071219;28;20475;-62
2022/06/25 10:49:17;;;;;;;1.17;1.08;;;;;;;24.53;52.19;101039.88;5027563;28;20025;-58
2022/06/25 10:51:45;;;;;;;3.65;1.40;;;;;;;24.58;53.31;101039.31;5033871;28;20156;-58
2022/06/25 10:54:15;;;;;;;1.55;1.30;;;;;;;24.69;52.44;101037.00;5029704;28;20037;-58
2022/06/25 10:56:47;;;;;;;1.70;1.30;;;;;;;24.93;51.77;101027.72;5028937;28;20033;-59
2022/06/25 10:59:45;;;;;;;2.22;1.42;;;;;;;25.46;52.89;101024.94;5029805;28;20132;-60
2022/06/25 11:02:13;;;;;;;1.52;0.98;;;;;;;25.39;48.53;101037.63;5021914;28;20029;-61
2022/06/25 11:04:52;;;;;;;4.13;1.33;;;;;;;25.27;49.96;101030.97;5028560;28;20034;-61
2022/06/25 11:07:22;;;;;;;1.42;1.10;;;;;;;24.88;49.23;101032.91;5027657;28;20029;-61
2022/06/25 11:09:56;;;;;;;3.53;1.13;;;;;;;24.83;51.56;101018.16;5030455;28;20060;-61
2022/06/25 11:12:24;;;;;;;2.10;1.10;;;;;;;24.73;50.69;101023.00;5030337;28;20025;-61
2022/06/25 11:15:10;;;;;;;2.42;1.02;;;;;;;24.86;51.57;101023.22;5030597;28;20381;-61
2022/06/25 11:17:36;;;;;;;1.85;1.00;;;;;;;24.65;51.04;101022.06;5011436;28;20068;-61
2022/06/25 11:20:09;;;;;;;3.97;1.20;;;;;;;24.39;52.21;101011.56;5038168;28;20495;-61
2022/06/25 11:22:48;;;;;;;4.95;1.35;;;;;;;24.37;52.95;101024.50;5069493;28;20391;-61
2022/06/25 11:30:44;;;;;;;2.42;1.20;;;;;;;24.34;51.75;101026.75;5070773;28;20051;-61
2022/06/25 11:33:10;;;;;;;1.52;1.00;;;;;;;24.24;52.21;101029.72;5057311;28;20049;-61
2022/06/25 11:35:41;;;;;;;2.78;1.20;;;;;;;24.41;52.79;101030.41;5071540;28;20123;-61
2022/06/25 11:38:14;;;;;;;1.20;1.00;;;;;;;24.54;50.71;101024.41;5091528;28;20028;-61
2022/06/25 11:40:39;;;;;;;3.47;1.15;;;;;;;24.62;52.56;101038.78;5090141;28;20032;-61
2022/06/25 11:43:08;;;;;;;3.88;1.10;;;;;;;24.70;51.27;101035.94;5073838;28;20058;-61